Time,TemperatureF,DewpointF,PressureIn,WindDirection,WindDirectionDegrees,WindSpeedMPH,WindSpeedGustMPH,Humidity,HourlyPrecipIn,Conditions,Clouds,dailyrainin,SoftwareType,DateUTC
2013-05-31 00:01:00,53.1,25.5,29.84,West,264,0.0,0.0,34,0.00,,,0.00,WeatherCatV1.14B232,2013-05-31 06:01:00,
2013-05-31 00:06:00,52.6,25.7,29.83,West,264,0.0,0.0,35,0.00,,,0.00,WeatherCatV1.14B232,2013-05-31 06:06:00,
2013-05-31 00:11:00,51.9,27.1,29.83,WNW,301,0.0,0.0,38,0.00,,,0.00,WeatherCatV1.14B232,2013-05-31 06:11:00,
2013-05-31 00:16:00,51.4,27.9,29.84,WNW,301,0.0,0.0,40,0.00,,,0.00,WeatherCatV1.14B232,2013-05-31 06:16:00,
2013-05-31 00:21:00,50.9,28.6,29.83,ENE,64,0.0,0.0,42,0.00,,,0.00,WeatherCatV1.14B232,2013-05-31 06:21:00,
2013-05-31 00:26:00,50.5,28.3,29.82,East,85,0.0,1.0,42,0.00,,,0.00,WeatherCatV1.14B232,2013-05-31 06:26:00,
2013-05-31 00:31:00,50.3,28.7,29.82,East,98,0.0,0.0,43,0.00,,,0.00,WeatherCatV1.14B232,2013-05-31 06:31:00,
2013-05-31 00:36:00,49.8,28.8,29.82,NE,43,0.0,1.0,44,0.00,,,0.00,WeatherCatV1.14B232,2013-05-31 06:36:00,
2013-05-31 00:41:00,49.4,28.4,29.82,NE,41,0.0,0.0,44,0.00,,,0.00,WeatherCatV1.14B232,2013-05-31 06:41:00,
2013-05-31 00:46:00,49.2,28.8,29.82,North,349,0.0,1.0,45,0.00,,,0.00,WeatherCatV1.14B232,2013-05-31 06:46:00,
2013-05-31 00:51:00,49.2,27.7,29.82,NE,44,0.0,0.0,43,0.00,,,0.00,WeatherCatV1.14B232,2013-05-31 06:51:00,
2013-05-31 00:56:00,49.0,29.1,29.82,NE,44,0.0,0.0,46,0.00,,,0.00,WeatherCatV1.14B232,2013-05-31 06:56:00,
2013-05-31 01:01:00,48.9,28.5,29.81,NE,44,0.0,0.0,45,0.00,,,0.00,WeatherCatV1.14B232,2013-05-31 07:01:00,
2013-05-31 01:06:00,48.5,31.2,29.81,SSE,167,0.0,2.0,51,0.00,,,0.00,WeatherCatV1.14B232,2013-05-31 07:06:00,
2013-05-31 01:11:00,48.0,29.8,29.81,SSE,166,0.0,2.0,49,0.00,,,0.00,WeatherCatV1.14B232,2013-05-31 07:11:00,
2013-05-31 01:16:00,47.8,30.1,29.81,SSE,167,0.0,0.0,50,0.00,,,0.00,WeatherCatV1.14B232,2013-05-31 07:16:00,
2013-05-31 01:21:00,47.6,30.9,29.81,ESE,120,0.0,0.0,52,0.00,,,0.00,WeatherCatV1.14B232,2013-05-31 07:21:00,
2013-05-31 01:26:00,47.6,29.9,29.81,East,98,0.0,0.0,50,0.00,,,0.00,WeatherCatV1.14B232,2013-05-31 07:26:00,
2013-05-31 01:31:00,47.3,31.5,29.81,SW,232,1.0,1.0,54,0.00,,,0.00,WeatherCatV1.14B232,2013-05-31 07:31:00,
2013-05-31 01:36:00,47.0,30.3,29.81,SSE,162,2.0,2.0,52,0.00,,,0.00,WeatherCatV1.14B232,2013-05-31 07:36:00,
2013-05-31 01:41:00,46.9,29.2,29.81,SSE,149,0.0,1.0,50,0.00,,,0.00,WeatherCatV1.14B232,2013-05-31 07:41:00,
2013-05-31 01:46:00,47.0,29.3,29.81,SSE,156,0.0,0.0,50,0.00,,,0.00,WeatherCatV1.14B232,2013-05-31 07:46:00,
2013-05-31 01:51:00,46.9,30.2,29.81,SSE,156,0.0,0.0,52,0.00,,,0.00,WeatherCatV1.14B232,2013-05-31 07:51:00,
2013-05-31 01:56:00,46.7,30.0,29.81,SSE,167,0.0,0.0,52,0.00,,,0.00,WeatherCatV1.14B232,2013-05-31 07:56:00,
2013-05-31 02:01:00,46.5,29.4,29.81,SE,131,0.0,0.0,51,0.00,,,0.00,WeatherCatV1.14B232,2013-05-31 08:01:00,
2013-05-31 02:06:00,46.5,30.8,29.81,SE,131,0.0,0.0,54,0.00,,,0.00,WeatherCatV1.14B232,2013-05-31 08:06:00,
2013-05-31 02:11:00,46.4,30.7,29.81,ESE,110,0.0,1.0,54,0.00,,,0.00,WeatherCatV1.14B232,2013-05-31 08:11:00,
2013-05-31 02:16:00,46.3,31.9,29.81,WSW,250,0.0,0.0,57,0.00,,,0.00,WeatherCatV1.14B232,2013-05-31 08:16:00,
2013-05-31 02:21:00,46.1,31.3,29.81,South,177,0.0,1.0,56,0.00,,,0.00,WeatherCatV1.14B232,2013-05-31 08:21:00,
2013-05-31 02:26:00,46.1,31.3,29.80,SE,146,1.0,1.0,56,0.00,,,0.00,WeatherCatV1.14B232,2013-05-31 08:26:00,
2013-05-31 02:31:00,45.9,32.0,29.81,SW,232,0.0,0.0,58,0.00,,,0.00,WeatherCatV1.14B232,2013-05-31 08:31:00,
2013-05-31 02:36:00,45.8,31.4,29.82,SW,232,0.0,0.0,57,0.00,,,0.00,WeatherCatV1.14B232,2013-05-31 08:36:00,
2013-05-31 02:41:00,45.6,32.1,29.82,SW,232,0.0,0.0,59,0.00,,,0.00,WeatherCatV1.14B232,2013-05-31 08:41:00,
2013-05-31 02:46:00,45.6,32.5,29.82,SW,233,0.0,0.0,60,0.00,,,0.00,WeatherCatV1.14B232,2013-05-31 08:46:00,
2013-05-31 02:51:00,45.7,32.6,29.82,WNW,300,0.0,0.0,60,0.00,,,0.00,WeatherCatV1.14B232,2013-05-31 08:51:00,
2013-05-31 02:56:00,45.6,32.1,29.83,NW,315,0.0,0.0,59,0.00,,,0.00,WeatherCatV1.14B232,2013-05-31 08:56:00,
2013-05-31 03:01:00,45.6,32.5,29.83,NW,315,0.0,0.0,60,0.00,,,0.00,WeatherCatV1.14B232,2013-05-31 09:01:00,
2013-05-31 03:06:00,45.6,33.3,29.83,South,190,0.0,0.0,62,0.00,,,0.00,WeatherCatV1.14B232,2013-05-31 09:06:00,
2013-05-31 03:11:00,45.5,33.2,29.82,SSE,160,0.0,0.0,62,0.00,,,0.00,WeatherCatV1.14B232,2013-05-31 09:11:00,
2013-05-31 03:16:00,45.4,33.2,29.83,South,187,0.0,1.0,62,0.00,,,0.00,WeatherCatV1.14B232,2013-05-31 09:16:00,
2013-05-31 03:21:00,45.3,33.1,29.83,South,188,0.0,0.0,62,0.00,,,0.00,WeatherCatV1.14B232,2013-05-31 09:21:00,
2013-05-31 03:26:00,45.3,33.5,29.83,SSW,198,2.0,2.0,63,0.00,,,0.00,WeatherCatV1.14B232,2013-05-31 09:26:00,
2013-05-31 03:31:00,45.3,32.7,29.83,SSW,195,0.0,2.0,61,0.00,,,0.00,WeatherCatV1.14B232,2013-05-31 09:31:00,
2013-05-31 03:36:00,45.3,33.1,29.83,South,177,0.0,0.0,62,0.00,,,0.00,WeatherCatV1.14B232,2013-05-31 09:36:00,
2013-05-31 03:41:00,45.1,33.7,29.83,South,177,0.0,0.0,64,0.00,,,0.00,WeatherCatV1.14B232,2013-05-31 09:41:00,
2013-05-31 03:46:00,44.9,33.9,29.83,NNE,27,1.0,2.0,65,0.00,,,0.00,WeatherCatV1.14B232,2013-05-31 09:46:00,
2013-05-31 03:51:00,45.0,33.6,29.84,North,349,0.0,0.0,64,0.00,,,0.00,WeatherCatV1.14B232,2013-05-31 09:51:00,
2013-05-31 03:56:00,44.9,34.2,29.82,SSE,162,0.0,1.0,66,0.00,,,0.00,WeatherCatV1.14B232,2013-05-31 09:56:00,
2013-05-31 04:01:00,44.7,34.0,29.82,SSE,157,0.0,2.0,66,0.00,,,0.00,WeatherCatV1.14B232,2013-05-31 10:01:00,
2013-05-31 04:06:00,44.4,33.4,29.83,SSE,153,0.0,0.0,65,0.00,,,0.00,WeatherCatV1.14B232,2013-05-31 10:06:00,
2013-05-31 04:11:00,44.6,33.6,29.83,North,354,1.0,1.0,65,0.00,,,0.00,WeatherCatV1.14B232,2013-05-31 10:11:00,
2013-05-31 04:16:00,44.7,33.3,29.84,NNW,336,1.0,2.0,64,0.00,,,0.00,WeatherCatV1.14B232,2013-05-31 10:16:00,
2013-05-31 04:21:00,44.7,32.9,29.84,WNW,301,0.0,0.0,63,0.00,,,0.00,WeatherCatV1.14B232,2013-05-31 10:21:00,
2013-05-31 04:26:00,44.7,32.5,29.83,ESE,105,0.0,1.0,62,0.00,,,0.00,WeatherCatV1.14B232,2013-05-31 10:26:00,
2013-05-31 04:31:00,45.0,33.2,29.84,WSW,249,0.0,1.0,63,0.00,,,0.00,WeatherCatV1.14B232,2013-05-31 10:31:00,
2013-05-31 04:36:00,44.9,33.1,29.84,WNW,302,1.0,1.0,63,0.00,,,0.00,WeatherCatV1.14B232,2013-05-31 10:36:00,
2013-05-31 04:41:00,44.7,32.9,29.84,NW,304,0.0,0.0,63,0.00,,,0.00,WeatherCatV1.14B232,2013-05-31 10:41:00,
2013-05-31 04:46:00,44.6,31.6,29.84,NW,304,0.0,0.0,60,0.00,,,0.00,WeatherCatV1.14B232,2013-05-31 10:46:00,
2013-05-31 04:51:00,44.7,32.9,29.83,NNE,25,0.0,1.0,63,0.00,,,0.00,WeatherCatV1.14B232,2013-05-31 10:51:00,
2013-05-31 04:56:00,44.8,33.0,29.83,WSW,240,0.0,1.0,63,0.00,,,0.00,WeatherCatV1.14B232,2013-05-31 10:56:00,
2013-05-31 05:01:00,44.9,30.6,29.84,SSW,193,0.0,0.0,57,0.00,,,0.00,WeatherCatV1.14B232,2013-05-31 11:01:00,
2013-05-31 05:06:00,45.1,32.5,29.83,SSW,193,0.0,0.0,61,0.00,,,0.00,WeatherCatV1.14B232,2013-05-31 11:06:00,
2013-05-31 05:11:00,45.0,33.2,29.83,South,191,0.0,1.0,63,0.00,,,0.00,WeatherCatV1.14B232,2013-05-31 11:11:00,
2013-05-31 05:16:00,44.8,33.8,29.83,SSW,193,0.0,0.0,65,0.00,,,0.00,WeatherCatV1.14B232,2013-05-31 11:16:00,
2013-05-31 05:21:00,44.5,33.1,29.83,SSW,193,0.0,0.0,64,0.00,,,0.00,WeatherCatV1.14B232,2013-05-31 11:21:00,
2013-05-31 05:26:00,44.2,33.2,29.83,SSW,193,0.0,0.0,65,0.00,,,0.00,WeatherCatV1.14B232,2013-05-31 11:26:00,
2013-05-31 05:31:00,43.9,33.7,29.83,SSW,193,0.0,0.0,67,0.00,,,0.00,WeatherCatV1.14B232,2013-05-31 11:31:00,
2013-05-31 05:36:00,43.3,33.8,29.83,SSW,193,0.0,0.0,69,0.00,,,0.00,WeatherCatV1.14B232,2013-05-31 11:36:00,
2013-05-31 05:41:00,42.8,34.4,29.83,SSW,193,0.0,0.0,72,0.00,,,0.00,WeatherCatV1.14B232,2013-05-31 11:41:00,
2013-05-31 05:46:00,42.3,34.6,29.83,South,184,0.0,0.0,74,0.00,,,0.00,WeatherCatV1.14B232,2013-05-31 11:46:00,
2013-05-31 05:51:00,41.8,34.5,29.83,South,184,0.0,0.0,75,0.00,,,0.00,WeatherCatV1.14B232,2013-05-31 11:51:00,
2013-05-31 05:56:00,41.2,33.9,29.83,South,184,0.0,0.0,75,0.00,,,0.00,WeatherCatV1.14B232,2013-05-31 11:56:00,
2013-05-31 06:01:00,40.7,34.4,29.83,South,185,0.0,0.0,78,0.00,,,0.00,WeatherCatV1.14B232,2013-05-31 12:01:00,
2013-05-31 06:06:00,40.2,34.2,29.83,South,184,0.0,0.0,79,0.00,,,0.00,WeatherCatV1.14B232,2013-05-31 12:06:00,
2013-05-31 06:11:00,39.8,34.5,29.84,SSE,167,1.0,1.0,81,0.00,,,0.00,WeatherCatV1.14B232,2013-05-31 12:11:00,
2013-05-31 06:16:00,39.5,34.2,29.84,SSE,167,2.0,2.0,81,0.00,,,0.00,WeatherCatV1.14B232,2013-05-31 12:16:00,
2013-05-31 06:21:00,39.3,33.7,29.84,SSW,207,1.0,1.0,80,0.00,,,0.00,WeatherCatV1.14B232,2013-05-31 12:21:00,
2013-05-31 06:26:00,39.2,33.2,29.84,SSE,162,0.0,0.0,79,0.00,,,0.00,WeatherCatV1.14B232,2013-05-31 12:26:00,
2013-05-31 06:31:00,39.5,32.6,29.85,SSE,160,0.0,1.0,76,0.00,,,0.00,WeatherCatV1.14B232,2013-05-31 12:31:00,
2013-05-31 06:36:00,40.4,32.8,29.85,SSE,159,1.0,1.0,74,0.00,,,0.00,WeatherCatV1.14B232,2013-05-31 12:36:00,
2013-05-31 06:41:00,41.7,33.0,29.86,SSE,153,0.0,1.0,71,0.00,,,0.00,WeatherCatV1.14B232,2013-05-31 12:41:00,
2013-05-31 06:46:00,43.1,33.6,29.86,SSE,159,0.0,1.0,69,0.00,,,0.00,WeatherCatV1.14B232,2013-05-31 12:46:00,
2013-05-31 06:51:00,44.4,33.8,29.86,ESE,103,0.0,1.0,66,0.00,,,0.00,WeatherCatV1.14B232,2013-05-31 12:51:00,
2013-05-31 06:56:00,45.0,33.6,29.86,SSE,158,1.0,1.0,64,0.00,,,0.00,WeatherCatV1.14B232,2013-05-31 12:56:00,
2013-05-31 07:01:00,45.9,34.0,29.86,East,94,0.0,0.0,63,0.00,,,0.00,WeatherCatV1.14B232,2013-05-31 13:01:00,
2013-05-31 07:06:00,47.0,33.8,29.86,East,91,0.0,1.0,60,0.00,,,0.00,WeatherCatV1.14B232,2013-05-31 13:06:00,
2013-05-31 07:11:00,48.0,33.9,29.86,East,91,0.0,0.0,58,0.00,,,0.00,WeatherCatV1.14B232,2013-05-31 13:11:00,
2013-05-31 07:16:00,49.4,32.5,29.86,ESE,116,0.0,0.0,52,0.00,,,0.00,WeatherCatV1.14B232,2013-05-31 13:16:00,
2013-05-31 07:21:00,50.2,32.3,29.87,North,357,0.0,1.0,50,0.00,,,0.00,WeatherCatV1.14B232,2013-05-31 13:21:00,
2013-05-31 07:26:00,50.7,32.7,29.87,North,356,0.0,0.0,50,0.00,,,0.00,WeatherCatV1.14B232,2013-05-31 13:26:00,
2013-05-31 07:31:00,52.1,33.5,29.87,North,356,0.0,0.0,49,0.00,,,0.00,WeatherCatV1.14B232,2013-05-31 13:31:00,
2013-05-31 07:36:00,53.4,33.7,29.86,North,356,0.0,0.0,47,0.00,,,0.00,WeatherCatV1.14B232,2013-05-31 13:36:00,
2013-05-31 07:41:00,54.2,33.3,29.87,North,359,0.0,0.0,45,0.00,,,0.00,WeatherCatV1.14B232,2013-05-31 13:41:00,
2013-05-31 07:46:00,52.9,32.1,29.87,NE,37,1.0,2.0,45,0.00,,,0.00,WeatherCatV1.14B232,2013-05-31 13:46:00,
2013-05-31 07:51:00,52.1,33.0,29.86,NNE,32,1.0,2.0,48,0.00,,,0.00,WeatherCatV1.14B232,2013-05-31 13:51:00,
2013-05-31 07:56:00,52.0,32.4,29.87,NW,323,1.0,2.0,47,0.00,,,0.00,WeatherCatV1.14B232,2013-05-31 13:56:00,
2013-05-31 08:01:00,52.2,33.1,29.86,North,350,0.0,2.0,48,0.00,,,0.00,WeatherCatV1.14B232,2013-05-31 14:01:00,
2013-05-31 08:06:00,52.6,33.5,29.86,NNE,27,2.0,2.0,48,0.00,,,0.00,WeatherCatV1.14B232,2013-05-31 14:06:00,
2013-05-31 08:11:00,53.1,32.3,29.86,NE,40,0.0,2.0,45,0.00,,,0.00,WeatherCatV1.14B232,2013-05-31 14:11:00,
2013-05-31 08:16:00,53.9,31.9,29.86,East,79,1.0,2.0,43,0.00,,,0.00,WeatherCatV1.14B232,2013-05-31 14:16:00,
2013-05-31 08:21:00,54.5,31.9,29.86,ENE,67,1.0,2.0,42,0.00,,,0.00,WeatherCatV1.14B232,2013-05-31 14:21:00,
2013-05-31 08:26:00,55.0,31.7,29.86,SE,125,1.0,3.0,41,0.00,,,0.00,WeatherCatV1.14B232,2013-05-31 14:26:00,
2013-05-31 08:31:00,55.5,31.0,29.86,South,174,0.0,2.0,39,0.00,,,0.00,WeatherCatV1.14B232,2013-05-31 14:31:00,
2013-05-31 08:36:00,56.2,30.9,29.86,SE,142,1.0,2.0,38,0.00,,,0.00,WeatherCatV1.14B232,2013-05-31 14:36:00,
2013-05-31 08:41:00,57.1,31.7,29.86,ENE,60,0.0,1.0,38,0.00,,,0.00,WeatherCatV1.14B232,2013-05-31 14:41:00,
2013-05-31 08:46:00,57.8,30.3,29.86,SSE,150,1.0,2.0,35,0.00,,,0.00,WeatherCatV1.14B232,2013-05-31 14:46:00,
2013-05-31 08:51:00,58.2,31.4,29.86,South,181,0.0,0.0,36,0.00,,,0.00,WeatherCatV1.14B232,2013-05-31 14:51:00,
2013-05-31 08:56:00,58.2,29.2,29.86,North,4,2.0,2.0,33,0.00,,,0.00,WeatherCatV1.14B232,2013-05-31 14:56:00,
2013-05-31 09:01:00,57.9,28.2,29.86,WNW,284,0.0,3.0,32,0.00,,,0.00,WeatherCatV1.14B232,2013-05-31 15:01:00,
2013-05-31 09:06:00,58.2,30.0,29.85,NW,309,2.0,6.0,34,0.00,,,0.00,WeatherCatV1.14B232,2013-05-31 15:06:00,
2013-05-31 09:11:00,58.7,30.4,29.86,ESE,110,0.0,5.0,34,0.00,,,0.00,WeatherCatV1.14B232,2013-05-31 15:11:00,
2013-05-31 09:16:00,58.9,27.5,29.85,NW,323,3.0,9.0,30,0.00,,,0.00,WeatherCatV1.14B232,2013-05-31 15:16:00,
2013-05-31 09:21:00,58.8,27.4,29.85,NNW,330,7.0,9.0,30,0.00,,,0.00,WeatherCatV1.14B232,2013-05-31 15:21:00,
2013-05-31 09:26:00,58.7,27.4,29.85,NNE,23,3.0,12.0,30,0.00,,,0.00,WeatherCatV1.14B232,2013-05-31 15:26:00,
2013-05-31 09:31:00,58.6,27.3,29.85,NNW,342,6.0,12.0,30,0.00,,,0.00,WeatherCatV1.14B232,2013-05-31 15:31:00,
2013-05-31 09:36:00,58.8,27.4,29.85,North,349,7.0,12.0,30,0.00,,,0.00,WeatherCatV1.14B232,2013-05-31 15:36:00,
2013-05-31 09:41:00,59.1,27.7,29.85,NNW,335,6.0,10.0,30,0.00,,,0.00,WeatherCatV1.14B232,2013-05-31 15:41:00,
2013-05-31 09:46:00,59.2,27.8,29.85,NNW,338,5.0,15.0,30,0.00,,,0.00,WeatherCatV1.14B232,2013-05-31 15:46:00,
2013-05-31 09:51:00,59.1,27.7,29.85,West,267,9.0,12.0,30,0.00,,,0.00,WeatherCatV1.14B232,2013-05-31 15:51:00,
2013-05-31 09:56:00,59.1,26.9,29.85,NNW,335,7.0,15.0,29,0.00,,,0.00,WeatherCatV1.14B232,2013-05-31 15:56:00,
2013-05-31 10:01:00,59.0,26.8,29.84,North,0,7.0,16.0,29,0.00,,,0.00,WeatherCatV1.14B232,2013-05-31 16:01:00,
2013-05-31 10:06:00,59.4,27.1,29.84,North,357,9.0,11.0,29,0.00,,,0.00,WeatherCatV1.14B232,2013-05-31 16:06:00,
2013-05-31 10:11:00,59.6,28.1,29.84,North,351,11.0,14.0,30,0.00,,,0.00,WeatherCatV1.14B232,2013-05-31 16:11:00,
2013-05-31 10:16:00,59.6,26.5,29.84,NNE,22,7.0,18.0,28,0.00,,,0.00,WeatherCatV1.14B232,2013-05-31 16:16:00,
2013-05-31 10:21:00,59.8,27.5,29.84,NE,48,9.0,16.0,29,0.00,,,0.00,WeatherCatV1.14B232,2013-05-31 16:21:00,
2013-05-31 10:26:00,59.9,26.7,29.84,NNE,13,8.0,16.0,28,0.00,,,0.00,WeatherCatV1.14B232,2013-05-31 16:26:00,
2013-05-31 10:31:00,60.1,27.7,29.84,NNW,343,11.0,14.0,29,0.00,,,0.00,WeatherCatV1.14B232,2013-05-31 16:31:00,
2013-05-31 10:36:00,60.2,27.0,29.84,NNW,341,6.0,15.0,28,0.00,,,0.00,WeatherCatV1.14B232,2013-05-31 16:36:00,
2013-05-31 10:41:00,60.8,27.5,29.84,NW,323,3.0,8.0,28,0.00,,,0.00,WeatherCatV1.14B232,2013-05-31 16:41:00,
2013-05-31 10:46:00,60.9,27.6,29.84,North,355,8.0,16.0,28,0.00,,,0.00,WeatherCatV1.14B232,2013-05-31 16:46:00,
2013-05-31 10:51:00,60.7,25.6,29.84,NW,306,6.0,9.0,26,0.00,,,0.00,WeatherCatV1.14B232,2013-05-31 16:51:00,
2013-05-31 10:56:00,60.9,26.7,29.84,NNW,345,9.0,17.0,27,0.00,,,0.00,WeatherCatV1.14B232,2013-05-31 16:56:00,
2013-05-31 11:01:00,61.2,28.7,29.84,NNW,338,4.0,12.0,29,0.00,,,0.00,WeatherCatV1.14B232,2013-05-31 17:01:00,
2013-05-31 11:06:00,61.1,26.9,29.84,ENE,77,9.0,15.0,27,0.00,,,0.00,WeatherCatV1.14B232,2013-05-31 17:06:00,
2013-05-31 11:11:00,60.4,27.1,29.85,NNE,14,16.0,16.0,28,0.00,,,0.00,WeatherCatV1.14B232,2013-05-31 17:11:00,
2013-05-31 11:16:00,59.9,27.6,29.85,NNW,338,5.0,18.0,29,0.00,,,0.00,WeatherCatV1.14B232,2013-05-31 17:16:00,
2013-05-31 11:21:00,59.9,27.6,29.84,NW,309,4.0,14.0,29,0.00,,,0.00,WeatherCatV1.14B232,2013-05-31 17:21:00,
2013-05-31 11:26:00,60.3,27.1,29.85,West,281,9.0,11.0,28,0.00,,,0.00,WeatherCatV1.14B232,2013-05-31 17:26:00,
2013-05-31 11:31:00,61.3,26.1,29.84,North,353,11.0,15.0,26,0.00,,,0.00,WeatherCatV1.14B232,2013-05-31 17:31:00,
2013-05-31 11:36:00,61.3,25.2,29.84,NNE,22,8.0,14.0,25,0.00,,,0.00,WeatherCatV1.14B232,2013-05-31 17:36:00,
2013-05-31 11:41:00,60.6,25.5,29.84,NNE,19,4.0,7.0,26,0.00,,,0.00,WeatherCatV1.14B232,2013-05-31 17:41:00,
2013-05-31 11:46:00,61.5,22.3,29.85,West,277,3.0,8.0,22,0.00,,,0.00,WeatherCatV1.14B232,2013-05-31 17:46:00,
2013-05-31 11:51:00,62.3,23.0,29.84,NW,323,8.0,9.0,22,0.00,,,0.00,WeatherCatV1.14B232,2013-05-31 17:51:00,
2013-05-31 11:56:00,62.5,22.0,29.85,North,9,10.0,11.0,21,0.00,,,0.00,WeatherCatV1.14B232,2013-05-31 17:56:00,
2013-05-31 12:01:00,62.3,23.0,29.85,NW,304,8.0,10.0,22,0.00,,,0.00,WeatherCatV1.14B232,2013-05-31 18:01:00,
2013-05-31 12:06:00,61.9,20.4,29.84,NNE,19,5.0,12.0,20,0.00,,,0.00,WeatherCatV1.14B232,2013-05-31 18:06:00,
2013-05-31 12:11:00,61.5,22.3,29.85,NNW,331,2.0,9.0,22,0.00,,,0.00,WeatherCatV1.14B232,2013-05-31 18:11:00,
2013-05-31 12:16:00,61.3,26.1,29.84,NE,41,2.0,3.0,26,0.00,,,0.00,WeatherCatV1.14B232,2013-05-31 18:16:00,
2013-05-31 12:21:00,63.4,25.0,29.84,NNW,335,2.0,5.0,23,0.00,,,0.00,WeatherCatV1.14B232,2013-05-31 18:21:00,
2013-05-31 12:26:00,63.4,19.2,29.85,WSW,241,5.0,12.0,18,0.00,,,0.00,WeatherCatV1.14B232,2013-05-31 18:26:00,
2013-05-31 12:31:00,62.8,19.9,29.85,West,268,8.0,10.0,19,0.00,,,0.00,WeatherCatV1.14B232,2013-05-31 18:31:00,
2013-05-31 12:36:00,62.2,19.4,29.84,WNW,287,2.0,10.0,19,0.00,,,0.00,WeatherCatV1.14B232,2013-05-31 18:36:00,
2013-05-31 12:41:00,63.0,20.1,29.84,NNW,340,11.0,14.0,19,0.00,,,0.00,WeatherCatV1.14B232,2013-05-31 18:41:00,
2013-05-31 12:46:00,62.7,18.6,29.84,NNW,346,6.0,16.0,18,0.00,,,0.00,WeatherCatV1.14B232,2013-05-31 18:46:00,
2013-05-31 12:51:00,62.8,18.7,29.84,West,267,5.0,13.0,18,0.00,,,0.00,WeatherCatV1.14B232,2013-05-31 18:51:00,
2013-05-31 12:56:00,62.3,19.5,29.84,NNW,347,17.0,19.0,19,0.00,,,0.00,WeatherCatV1.14B232,2013-05-31 18:56:00,
2013-05-31 13:01:00,62.1,21.7,29.85,North,1,11.0,14.0,21,0.00,,,0.00,WeatherCatV1.14B232,2013-05-31 19:01:00,
2013-05-31 13:06:00,62.0,22.7,29.84,North,6,14.0,18.0,22,0.00,,,0.00,WeatherCatV1.14B232,2013-05-31 19:06:00,
2013-05-31 13:11:00,61.2,23.1,29.85,NNE,13,11.0,15.0,23,0.00,,,0.00,WeatherCatV1.14B232,2013-05-31 19:11:00,
2013-05-31 13:16:00,60.8,23.8,29.85,North,353,3.0,5.0,24,0.00,,,0.00,WeatherCatV1.14B232,2013-05-31 19:16:00,
2013-05-31 13:21:00,60.5,22.5,29.87,West,259,3.0,11.0,23,0.00,,,0.00,WeatherCatV1.14B232,2013-05-31 19:21:00,
2013-05-31 13:26:00,59.8,21.9,29.86,WNW,288,2.0,9.0,23,0.00,,,0.00,WeatherCatV1.14B232,2013-05-31 19:26:00,
2013-05-31 13:31:00,61.1,24.0,29.85,WNW,287,4.0,7.0,24,0.00,,,0.00,WeatherCatV1.14B232,2013-05-31 19:31:00,
2013-05-31 13:36:00,62.1,22.8,29.85,NNW,341,9.0,17.0,22,0.00,,,0.00,WeatherCatV1.14B232,2013-05-31 19:36:00,
2013-05-31 13:41:00,62.7,23.3,29.85,NNW,338,6.0,16.0,22,0.00,,,0.00,WeatherCatV1.14B232,2013-05-31 19:41:00,
2013-05-31 13:46:00,63.1,21.4,29.85,North,355,8.0,14.0,20,0.00,,,0.00,WeatherCatV1.14B232,2013-05-31 19:46:00,
2013-05-31 13:51:00,62.8,21.1,29.85,WSW,243,5.0,13.0,20,0.00,,,0.00,WeatherCatV1.14B232,2013-05-31 19:51:00,
2013-05-31 13:56:00,62.8,21.1,29.86,NNW,339,9.0,23.0,20,0.00,,,0.00,WeatherCatV1.14B232,2013-05-31 19:56:00,
2013-05-31 14:01:00,63.0,21.3,29.86,West,271,3.0,12.0,20,0.00,,,0.00,WeatherCatV1.14B232,2013-05-31 20:01:00,
2013-05-31 14:06:00,63.4,21.6,29.85,NNW,345,6.0,13.0,20,0.00,,,0.00,WeatherCatV1.14B232,2013-05-31 20:06:00,
2013-05-31 14:11:00,63.9,23.2,29.85,North,358,7.0,14.0,21,0.00,,,0.00,WeatherCatV1.14B232,2013-05-31 20:11:00,
2013-05-31 14:16:00,64.3,21.2,29.85,North,349,3.0,11.0,19,0.00,,,0.00,WeatherCatV1.14B232,2013-05-31 20:16:00,
2013-05-31 14:21:00,64.4,20.0,29.85,NNW,347,13.0,13.0,18,0.00,,,0.00,WeatherCatV1.14B232,2013-05-31 20:21:00,
2013-05-31 14:26:00,64.3,21.2,29.85,NNW,338,6.0,10.0,19,0.00,,,0.00,WeatherCatV1.14B232,2013-05-31 20:26:00,
2013-05-31 14:31:00,64.2,19.8,29.84,WSW,240,1.0,8.0,18,0.00,,,0.00,WeatherCatV1.14B232,2013-05-31 20:31:00,
2013-05-31 14:36:00,65.3,23.2,29.84,WNW,294,1.0,4.0,20,0.00,,,0.00,WeatherCatV1.14B232,2013-05-31 20:36:00,
2013-05-31 14:41:00,65.9,19.9,29.85,West,271,3.0,11.0,17,0.00,,,0.00,WeatherCatV1.14B232,2013-05-31 20:41:00,
2013-05-31 14:46:00,65.3,19.4,29.84,WNW,285,4.0,16.0,17,0.00,,,0.00,WeatherCatV1.14B232,2013-05-31 20:46:00,
2013-05-31 14:51:00,65.4,20.8,29.85,NNW,333,10.0,15.0,18,0.00,,,0.00,WeatherCatV1.14B232,2013-05-31 20:51:00,
2013-05-31 14:56:00,64.6,17.4,29.84,WSW,248,6.0,8.0,16,0.00,,,0.00,WeatherCatV1.14B232,2013-05-31 20:56:00,
2013-05-31 15:01:00,64.3,18.6,29.84,NNE,27,11.0,13.0,17,0.00,,,0.00,WeatherCatV1.14B232,2013-05-31 21:01:00,
2013-05-31 15:06:00,65.0,16.2,29.84,NE,44,2.0,9.0,15,0.00,,,0.00,WeatherCatV1.14B232,2013-05-31 21:06:00,
2013-05-31 15:11:00,65.2,19.3,29.84,WSW,250,2.0,3.0,17,0.00,,,0.00,WeatherCatV1.14B232,2013-05-31 21:11:00,
2013-05-31 15:16:00,64.7,17.5,29.84,NNW,332,7.0,11.0,16,0.00,,,0.00,WeatherCatV1.14B232,2013-05-31 21:16:00,
2013-05-31 15:21:00,64.2,17.1,29.84,NNW,338,1.0,8.0,16,0.00,,,0.00,WeatherCatV1.14B232,2013-05-31 21:21:00,
2013-05-31 15:26:00,63.9,15.4,29.84,NNE,19,18.0,18.0,15,0.00,,,0.00,WeatherCatV1.14B232,2013-05-31 21:26:00,
2013-05-31 15:31:00,63.8,16.8,29.84,NNW,341,7.0,14.0,16,0.00,,,0.00,WeatherCatV1.14B232,2013-05-31 21:31:00,
2013-05-31 15:36:00,64.0,15.4,29.84,North,353,14.0,14.0,15,0.00,,,0.00,WeatherCatV1.14B232,2013-05-31 21:36:00,
2013-05-31 15:41:00,64.3,15.7,29.84,North,1,17.0,19.0,15,0.00,,,0.00,WeatherCatV1.14B232,2013-05-31 21:41:00,
2013-05-31 15:46:00,64.1,15.5,29.84,NNE,13,2.0,9.0,15,0.00,,,0.00,WeatherCatV1.14B232,2013-05-31 21:46:00,
2013-05-31 15:51:00,64.7,14.4,29.85,NW,318,15.0,20.0,14,0.00,,,0.00,WeatherCatV1.14B232,2013-05-31 21:51:00,
2013-05-31 15:56:00,64.8,16.1,29.84,West,260,6.0,15.0,15,0.00,,,0.00,WeatherCatV1.14B232,2013-05-31 21:56:00,
2013-05-31 16:01:00,65.2,16.4,29.84,WSW,257,9.0,14.0,15,0.00,,,0.00,WeatherCatV1.14B232,2013-05-31 22:01:00,
2013-05-31 16:06:00,64.9,12.9,29.84,North,359,18.0,18.0,13,0.00,,,0.00,WeatherCatV1.14B232,2013-05-31 22:06:00,
2013-05-31 16:11:00,64.7,16.0,29.84,NNE,15,12.0,12.0,15,0.00,,,0.00,WeatherCatV1.14B232,2013-05-31 22:11:00,
2013-05-31 16:16:00,64.1,17.0,29.84,NNW,343,7.0,13.0,16,0.00,,,0.00,WeatherCatV1.14B232,2013-05-31 22:16:00,
2013-05-31 16:22:00,64.0,15.4,29.84,NNW,338,9.0,18.0,15,0.00,,,0.00,WeatherCatV1.14B232,2013-05-31 22:22:00,
2013-05-31 16:27:00,64.9,16.2,29.84,NW,323,3.0,22.0,15,0.00,,,0.00,WeatherCatV1.14B232,2013-05-31 22:27:00,
2013-05-31 16:32:00,65.5,18.1,29.84,WNW,292,5.0,17.0,16,0.00,,,0.00,WeatherCatV1.14B232,2013-05-31 22:32:00,
2013-05-31 16:37:00,65.5,18.1,29.84,NW,323,6.0,9.0,16,0.00,,,0.00,WeatherCatV1.14B232,2013-05-31 22:37:00,
2013-05-31 16:42:00,65.0,17.7,29.84,NW,314,4.0,16.0,16,0.00,,,0.00,WeatherCatV1.14B232,2013-05-31 22:42:00,
2013-05-31 16:47:00,65.2,16.4,29.84,WNW,295,8.0,9.0,15,0.00,,,0.00,WeatherCatV1.14B232,2013-05-31 22:47:00,
2013-05-31 16:52:00,64.9,14.6,29.84,WNW,302,7.0,18.0,14,0.00,,,0.00,WeatherCatV1.14B232,2013-05-31 22:52:00,
2013-05-31 16:57:00,65.5,16.6,29.84,NW,304,5.0,15.0,15,0.00,,,0.00,WeatherCatV1.14B232,2013-05-31 22:57:00,
2013-05-31 17:02:00,65.5,18.1,29.84,NE,36,8.0,9.0,16,0.00,,,0.00,WeatherCatV1.14B232,2013-05-31 23:02:00,
2013-05-31 17:07:00,65.5,15.1,29.84,NW,324,6.0,9.0,14,0.00,,,0.00,WeatherCatV1.14B232,2013-05-31 23:07:00,
2013-05-31 17:12:00,65.4,15.0,29.85,North,0,6.0,15.0,14,0.00,,,0.00,WeatherCatV1.14B232,2013-05-31 23:12:00,
2013-05-31 17:17:00,64.6,14.3,29.84,NW,315,5.0,16.0,14,0.00,,,0.00,WeatherCatV1.14B232,2013-05-31 23:17:00,
2013-05-31 17:22:00,64.5,15.8,29.85,NNW,333,1.0,14.0,15,0.00,,,0.00,WeatherCatV1.14B232,2013-05-31 23:22:00,
2013-05-31 17:27:00,64.8,16.1,29.84,NNW,347,5.0,7.0,15,0.00,,,0.00,WeatherCatV1.14B232,2013-05-31 23:27:00,
2013-05-31 17:32:00,65.1,16.3,29.84,West,273,2.0,11.0,15,0.00,,,0.00,WeatherCatV1.14B232,2013-05-31 23:32:00,
2013-05-31 17:37:00,65.0,14.7,29.84,NNW,348,11.0,16.0,14,0.00,,,0.00,WeatherCatV1.14B232,2013-05-31 23:37:00,
2013-05-31 17:42:00,65.1,17.8,29.84,NNE,32,4.0,18.0,16,0.00,,,0.00,WeatherCatV1.14B232,2013-05-31 23:42:00,
2013-05-31 17:47:00,64.9,16.2,29.84,NNW,333,6.0,12.0,15,0.00,,,0.00,WeatherCatV1.14B232,2013-05-31 23:47:00,
2013-05-31 17:52:00,65.1,16.3,29.84,NW,316,4.0,10.0,15,0.00,,,0.00,WeatherCatV1.14B232,2013-05-31 23:52:00,
2013-05-31 17:57:00,65.0,13.0,29.84,North,11,6.0,13.0,13,0.00,,,0.00,WeatherCatV1.14B232,2013-05-31 23:57:00,
2013-05-31 18:02:00,65.0,13.0,29.84,NW,316,3.0,13.0,13,0.00,,,0.00,WeatherCatV1.14B232,2013-06-01 00:02:00,
2013-05-31 18:07:00,65.0,14.7,29.84,NNW,341,8.0,10.0,14,0.00,,,0.00,WeatherCatV1.14B232,2013-06-01 00:07:00,
2013-05-31 18:12:00,64.7,12.7,29.84,NW,325,0.0,6.0,13,0.00,,,0.00,WeatherCatV1.14B232,2013-06-01 00:12:00,
2013-05-31 18:17:00,64.7,12.7,29.84,NNW,335,8.0,15.0,13,0.00,,,0.00,WeatherCatV1.14B232,2013-06-01 00:17:00,
2013-05-31 18:22:00,64.8,12.8,29.84,NNW,338,7.0,13.0,13,0.00,,,0.00,WeatherCatV1.14B232,2013-06-01 00:22:00,
2013-05-31 18:27:00,64.7,14.4,29.85,NNW,338,10.0,13.0,14,0.00,,,0.00,WeatherCatV1.14B232,2013-06-01 00:27:00,
2013-05-31 18:32:00,64.6,12.7,29.84,NE,36,3.0,6.0,13,0.00,,,0.00,WeatherCatV1.14B232,2013-06-01 00:32:00,
2013-05-31 18:37:00,64.6,12.7,29.85,NNW,332,5.0,15.0,13,0.00,,,0.00,WeatherCatV1.14B232,2013-06-01 00:37:00,
2013-05-31 18:42:00,64.6,12.7,29.85,NNW,342,7.0,13.0,13,0.00,,,0.00,WeatherCatV1.14B232,2013-06-01 00:42:00,
2013-05-31 18:47:00,64.4,14.2,29.85,NNE,26,6.0,6.0,14,0.00,,,0.00,WeatherCatV1.14B232,2013-06-01 00:47:00,
2013-05-31 18:52:00,64.5,14.3,29.85,NNW,340,9.0,9.0,14,0.00,,,0.00,WeatherCatV1.14B232,2013-06-01 00:52:00,
2013-05-31 18:57:00,64.5,12.6,29.85,NNW,340,3.0,6.0,13,0.00,,,0.00,WeatherCatV1.14B232,2013-06-01 00:57:00,
2013-05-31 19:02:00,64.7,12.7,29.85,NNE,19,4.0,9.0,13,0.00,,,0.00,WeatherCatV1.14B232,2013-06-01 01:02:00,
2013-05-31 19:07:00,64.9,12.9,29.85,NW,326,4.0,8.0,13,0.00,,,0.00,WeatherCatV1.14B232,2013-06-01 01:07:00,
2013-05-31 19:12:00,65.1,16.3,29.86,North,4,7.0,7.0,15,0.00,,,0.00,WeatherCatV1.14B232,2013-06-01 01:12:00,
2013-05-31 19:17:00,64.9,14.6,29.86,NW,312,2.0,7.0,14,0.00,,,0.00,WeatherCatV1.14B232,2013-06-01 01:17:00,
2013-05-31 19:22:00,64.6,14.3,29.86,West,267,5.0,11.0,14,0.00,,,0.00,WeatherCatV1.14B232,2013-06-01 01:22:00,
2013-05-31 19:27:00,64.4,14.2,29.86,WNW,295,8.0,12.0,14,0.00,,,0.00,WeatherCatV1.14B232,2013-06-01 01:27:00,
2013-05-31 19:32:00,64.3,15.7,29.86,NW,311,2.0,4.0,15,0.00,,,0.00,WeatherCatV1.14B232,2013-06-01 01:32:00,
2013-05-31 19:37:00,64.3,17.2,29.86,West,274,2.0,3.0,16,0.00,,,0.00,WeatherCatV1.14B232,2013-06-01 01:37:00,
2013-05-31 19:42:00,64.3,17.2,29.86,NW,304,2.0,3.0,16,0.00,,,0.00,WeatherCatV1.14B232,2013-06-01 01:42:00,
2013-05-31 19:47:00,64.1,17.0,29.86,WNW,294,4.0,4.0,16,0.00,,,0.00,WeatherCatV1.14B232,2013-06-01 01:47:00,
2013-05-31 19:52:00,63.6,15.1,29.87,WNW,298,1.0,7.0,15,0.00,,,0.00,WeatherCatV1.14B232,2013-06-01 01:52:00,
2013-05-31 19:57:00,62.8,16.0,29.87,NW,326,0.0,1.0,16,0.00,,,0.00,WeatherCatV1.14B232,2013-06-01 01:57:00,
2013-05-31 20:02:00,61.9,16.6,29.87,WNW,298,0.0,3.0,17,0.00,,,0.00,WeatherCatV1.14B232,2013-06-01 02:02:00,
2013-05-31 20:07:00,61.1,17.3,29.87,WNW,298,0.0,1.0,18,0.00,,,0.00,WeatherCatV1.14B232,2013-06-01 02:07:00,
2013-05-31 20:12:00,60.2,16.5,29.87,WNW,287,0.0,0.0,18,0.00,,,0.00,WeatherCatV1.14B232,2013-06-01 02:12:00,
2013-05-31 20:17:00,59.5,17.2,29.88,WNW,293,0.0,0.0,19,0.00,,,0.00,WeatherCatV1.14B232,2013-06-01 02:17:00,
2013-05-31 20:22:00,58.3,19.6,29.88,WNW,285,0.0,1.0,22,0.00,,,0.00,WeatherCatV1.14B232,2013-06-01 02:22:00,
2013-05-31 20:27:00,57.2,19.7,29.88,WNW,288,0.0,0.0,23,0.00,,,0.00,WeatherCatV1.14B232,2013-06-01 02:27:00,
2013-05-31 20:32:00,56.5,20.2,29.88,WSW,249,0.0,0.0,24,0.00,,,0.00,WeatherCatV1.14B232,2013-06-01 02:32:00,
2013-05-31 20:37:00,55.8,19.6,29.89,WSW,250,0.0,1.0,24,0.00,,,0.00,WeatherCatV1.14B232,2013-06-01 02:37:00,
2013-05-31 20:42:00,55.2,19.1,29.89,WSW,255,1.0,2.0,24,0.00,,,0.00,WeatherCatV1.14B232,2013-06-01 02:42:00,
2013-05-31 20:47:00,54.5,19.4,29.89,WSW,245,1.0,2.0,25,0.00,,,0.00,WeatherCatV1.14B232,2013-06-01 02:47:00,
2013-05-31 20:52:00,54.0,18.0,29.89,West,259,0.0,2.0,24,0.00,,,0.00,WeatherCatV1.14B232,2013-06-01 02:52:00,
2013-05-31 20:57:00,53.6,19.6,29.90,SE,138,0.0,2.0,26,0.00,,,0.00,WeatherCatV1.14B232,2013-06-01 02:57:00,
2013-05-31 21:02:00,53.1,19.1,29.90,NE,40,2.0,2.0,26,0.00,,,0.00,WeatherCatV1.14B232,2013-06-01 03:02:00,
2013-05-31 21:04:00,53.0,22.4,29.90,West,262,0.0,1.0,30,0.00,,,0.00,WeatherCatV1.14B232,2013-06-01 03:04:00,
2013-05-31 21:09:00,52.1,22.4,29.91,WSW,248,0.0,1.0,31,0.00,,,0.00,WeatherCatV1.14B232,2013-06-01 03:09:00,
2013-05-31 21:14:00,51.2,20.0,29.91,West,260,1.0,2.0,29,0.00,,,0.00,WeatherCatV1.14B232,2013-06-01 03:14:00,
2013-05-31 21:19:00,51.0,20.7,29.91,WSW,240,0.0,3.0,30,0.00,,,0.00,WeatherCatV1.14B232,2013-06-01 03:19:00,
2013-05-31 21:24:00,50.6,22.6,29.92,SSE,163,0.0,0.0,33,0.00,,,0.00,WeatherCatV1.14B232,2013-06-01 03:24:00,
2013-05-31 21:29:00,49.6,25.0,29.92,East,101,0.0,1.0,38,0.00,,,0.00,WeatherCatV1.14B232,2013-06-01 03:29:00,
2013-05-31 21:34:00,48.9,24.4,29.92,South,182,0.0,0.0,38,0.00,,,0.00,WeatherCatV1.14B232,2013-06-01 03:34:00,
2013-05-31 21:39:00,48.3,25.1,29.93,SE,145,0.0,1.0,40,0.00,,,0.00,WeatherCatV1.14B232,2013-06-01 03:39:00,
2013-05-31 21:44:00,47.7,25.2,29.93,SE,145,0.0,0.0,41,0.00,,,0.00,WeatherCatV1.14B232,2013-06-01 03:44:00,
2013-05-31 21:49:00,47.2,27.5,29.93,South,169,1.0,2.0,46,0.00,,,0.00,WeatherCatV1.14B232,2013-06-01 03:49:00,
2013-05-31 21:54:00,46.5,27.4,29.94,SSE,162,1.0,2.0,47,0.00,,,0.00,WeatherCatV1.14B232,2013-06-01 03:54:00,
2013-05-31 21:59:00,46.1,26.5,29.94,South,169,0.0,0.0,46,0.00,,,0.00,WeatherCatV1.14B232,2013-06-01 03:59:00,
2013-05-31 22:01:00,46.1,26.5,29.94,SSE,165,1.0,2.0,46,0.00,,,0.00,WeatherCatV1.14B232,2013-06-01 04:01:00,
2013-05-31 22:06:00,45.6,27.1,29.95,South,169,1.0,2.0,48,0.00,,,0.00,WeatherCatV1.14B232,2013-06-01 04:06:00,
2013-05-31 22:11:00,45.2,26.7,29.95,SSE,155,0.0,1.0,48,0.00,,,0.00,WeatherCatV1.14B232,2013-06-01 04:11:00,
2013-05-31 22:16:00,44.8,26.3,29.96,East,99,0.0,1.0,48,0.00,,,0.00,WeatherCatV1.14B232,2013-06-01 04:16:00,
2013-05-31 22:21:00,44.5,27.0,29.96,WSW,252,0.0,1.0,50,0.00,,,0.00,WeatherCatV1.14B232,2013-06-01 04:21:00,
2013-05-31 22:26:00,44.0,28.0,29.96,WSW,252,0.0,0.0,53,0.00,,,0.00,WeatherCatV1.14B232,2013-06-01 04:26:00,
2013-05-31 22:31:00,43.4,27.4,29.96,WSW,252,0.0,0.0,53,0.00,,,0.00,WeatherCatV1.14B232,2013-06-01 04:31:00,
2013-05-31 22:36:00,42.8,28.2,29.97,NW,323,0.0,1.0,56,0.00,,,0.00,WeatherCatV1.14B232,2013-06-01 04:36:00,
2013-05-31 22:38:00,42.7,26.8,29.97,NNW,335,0.0,1.0,53,0.00,,,0.00,WeatherCatV1.14B232,2013-06-01 04:38:00,
2013-05-31 22:43:00,42.7,25.8,29.97,NNW,334,0.0,0.0,51,0.00,,,0.00,WeatherCatV1.14B232,2013-06-01 04:43:00,
2013-05-31 22:48:00,42.5,29.2,29.97,NNW,335,0.0,0.0,59,0.00,,,0.00,WeatherCatV1.14B232,2013-06-01 04:48:00,
2013-05-31 22:53:00,41.9,27.8,29.97,South,172,1.0,1.0,57,0.00,,,0.00,WeatherCatV1.14B232,2013-06-01 04:53:00,
2013-05-31 22:58:00,41.3,28.1,29.98,South,172,0.0,0.0,59,0.00,,,0.00,WeatherCatV1.14B232,2013-06-01 04:58:00,
2013-05-31 23:03:00,41.0,26.9,29.98,South,172,0.0,0.0,57,0.00,,,0.00,WeatherCatV1.14B232,2013-06-01 05:03:00,
2013-05-31 23:08:00,40.6,27.4,29.98,South,172,0.0,0.0,59,0.00,,,0.00,WeatherCatV1.14B232,2013-06-01 05:08:00,
2013-05-31 23:13:00,40.3,28.3,29.99,SE,144,0.0,1.0,62,0.00,,,0.00,WeatherCatV1.14B232,2013-06-01 05:13:00,
2013-05-31 23:18:00,40.0,28.8,29.99,SW,235,0.0,0.0,64,0.00,,,0.00,WeatherCatV1.14B232,2013-06-01 05:18:00,
2013-05-31 23:23:00,39.5,30.2,29.99,SW,235,0.0,0.0,69,0.00,,,0.00,WeatherCatV1.14B232,2013-06-01 05:23:00,
2013-05-31 23:28:00,39.0,29.0,29.99,SW,235,0.0,0.0,67,0.00,,,0.00,WeatherCatV1.14B232,2013-06-01 05:28:00,
2013-05-31 23:33:00,38.7,28.3,30.00,SW,235,0.0,0.0,66,0.00,,,0.00,WeatherCatV1.14B232,2013-06-01 05:33:00,
2013-05-31 23:38:00,38.2,28.6,30.00,SW,235,0.0,0.0,68,0.00,,,0.00,WeatherCatV1.14B232,2013-06-01 05:38:00,
2013-05-31 23:43:00,38.1,29.2,30.00,WNW,293,0.0,0.0,70,0.00,,,0.00,WeatherCatV1.14B232,2013-06-01 05:43:00,
2013-05-31 23:48:00,37.9,28.7,30.00,WNW,293,0.0,0.0,69,0.00,,,0.00,WeatherCatV1.14B232,2013-06-01 05:48:00,
2013-05-31 23:53:00,37.7,28.5,30.00,WNW,293,0.0,0.0,69,0.00,,,0.00,WeatherCatV1.14B232,2013-06-01 05:53:00,
2013-05-31 23:58:00,37.5,29.3,30.00,WNW,292,0.0,0.0,72,0.00,,,0.00,WeatherCatV1.14B232,2013-06-01 05:58:00,